Pagrindinis puslapis
METAR-TAF:

METAR-TAF

Oro uostai :

Čita, Rusija

platuma: 52-05N, ilguma: 113-29E, Aukštis: 685 m

Dabartinis oras

Ataskaita buvo paskelbta 36 minutes, ne 07:30 UTC
Vėjas 4 kt iš Rytų/Pietryčių, svyruoja nuo Šiaurės Rytų ir Pietų/Pietryčių
Temperatūra 24°C
Drėgmė 27%
Slėgis 1003 hPa
Matomumas 10 km arba daugiau
Mažai debesys ne aukštis 5000 ft, Liūtiniai kamuoliniai debesys.

METAR: UIAA 190730Z 12002MPS 050V160 9999 FEW050CB 24/04 Q1003 R29/70D NOSIG RMK QFE694/0926

Laikas: 17:06 (08:06 UTC)

Prognozė

Ataskaita buvo paskelbta 3 valandos ir 6 minutes, ne 05:00 UTC
Prognozė galioja nuo 19 metu 06 UTC su 20 metu 06 UTC
Vėjas 6 kt iš Rytų su gūsio iki 16 kt
Matomumas 10 km arba daugiau
Išsisklaidę debesys ne aukštis 4000 ft, Liūtiniai kamuoliniai debesys.
Laikinai
nuo 19 metu 06 UTC su 19 metu 15 UTC
Vėjas 10 kt iš Pietų/Pietryčių su gūsio iki 19 kt

TAF: UIAA 190500Z 1906/2006 10003G08MPS 9999 SCT040CB TEMPO 1906/1915 16005G10MPS

Orai ataskaitas ir orų prognozės (METAR, TAF).

turimą stotys yra geltonos ir raudonos taškus žemėlapyje.

Perkelti pele per norėdami pamatyti stoties vardą.

Tada spustelėkite, norėdami matyti oro stebėjimo ir prognozės.

Norėdami pakeisti žemėlapį: spustelėkite ant žalios mygtukų su juodo kryžiaus žemyn,; žalią mygtuką su brūkšneliu, jei norite nutolinti; arba žalių rodyklių gretimoms žemėlapius.


METAR-TAF: